EETN/TLL METAR and TAF weather

Enter ICAO airport designator
Station Type Date Time Source
EETN METAR 2018/04/21 20:50 UTC NOAA

EETN 212050Z 29015KT CAVOK 08/01 Q1006 NOSIG


Station Type Date Time Source
EETN Decoded METAR 2018/04/21 20:50 UTC NOAA

Tallinn, Estonia (EETN) 59-24N 024-49E 34M
Apr 21, 2018 - 04:50 PM EDT / 2018.04.21 2050 UTC
Wind: from the WNW (290 degrees) at 17 MPH (15 KT):0
Visibility: greater than 7 mile(s):0
Temperature: 46 F (8 C)
Dew Point: 33 F (1 C)
Relative Humidity: 61%
Pressure (altimeter): 29.71 in. Hg (1006 hPa)
ob: EETN 212050Z 29015KT CAVOK 08/01 Q1006 NOSIG
cycle: 21

Station Type Date Time Source
EETN TAF 2018/04/21 18:03 UTC NOAA

TAF TAF EETN 211700Z 2118/2218 30014KT 9999 SCT015 BKN025 PROB40
TEMPO 2206/2212 SCT007 SCT013CB BKN020
BECMG 2210/2212 01010KT


Example: see airport list